createdAt,value
2023-03-01T00:00:39.006Z,15.45
2023-03-01T00:03:25.610Z,15.60
2023-03-01T00:06:13.051Z,15.35
2023-03-01T00:08:59.387Z,14.32
2023-03-01T00:11:48.130Z,16.50
2023-03-01T00:14:34.988Z,15.30
2023-03-01T00:17:21.201Z,18.38
2023-03-01T00:20:11.261Z,17.95
2023-03-01T00:22:57.404Z,21.13
2023-03-01T00:25:44.280Z,23.17
2023-03-01T00:28:31.956Z,21.25
2023-03-01T00:31:21.046Z,14.70
2023-03-01T00:34:08.841Z,16.75
2023-03-01T00:36:55.774Z,21.38
2023-03-01T00:39:42.905Z,18.08
2023-03-01T00:42:29.617Z,16.13
2023-03-01T01:24:24.535Z,20.02
2023-03-01T01:27:10.861Z,14.43
2023-03-01T01:29:57.017Z,19.23
2023-03-01T01:32:43.378Z,17.38
2023-03-01T01:35:30.006Z,18.77
2023-03-01T01:38:16.415Z,16.83
2023-03-01T01:41:04.596Z,18.70
2023-03-01T01:44:12.113Z,20.25
2023-03-01T01:47:00.675Z,20.25
2023-03-01T01:49:50.379Z,19.52
2023-03-01T01:52:39.617Z,18.77
2023-03-01T01:55:29.605Z,23.33
2023-03-01T01:58:21.324Z,23.20
2023-03-01T02:01:08.117Z,27.15
2023-03-01T02:03:55.059Z,22.13
2023-03-01T02:06:46.981Z,17.48
2023-03-01T02:09:34.409Z,25.15
2023-03-01T02:12:24.961Z,21.00
2023-03-01T02:15:12.824Z,19.95
2023-03-01T02:17:59.438Z,20.23
2023-03-01T02:20:58.085Z,23.30
2023-03-01T02:23:44.465Z,21.30
2023-03-01T02:26:38.895Z,20.77
2023-03-01T02:29:27.983Z,21.85
2023-03-01T02:32:16.313Z,23.42
2023-03-01T02:35:07.457Z,19.88
2023-03-01T02:37:53.790Z,22.70
2023-03-01T02:40:41.817Z,23.67
2023-03-01T02:43:32.317Z,27.25
2023-03-01T02:46:21.960Z,29.17
2023-03-01T02:49:21.761Z,21.33
2023-03-01T02:52:30.578Z,25.60
2023-03-01T02:55:19.156Z,24.48
2023-03-01T02:58:06.116Z,26.40
2023-03-01T03:00:54.430Z,21.42
2023-03-01T03:03:43.292Z,24.95
2023-03-01T03:06:31.157Z,21.50
2023-03-01T03:09:19.127Z,27.05
2023-03-01T03:12:06.971Z,19.92
2023-03-01T03:14:54.132Z,26.70
2023-03-01T03:17:41.823Z,20.92
2023-03-01T03:20:30.867Z,20.67
2023-03-01T03:23:17.672Z,24.73
2023-03-01T03:26:05.668Z,25.30
2023-03-01T03:28:52.213Z,23.25
2023-03-01T03:31:38.569Z,27.63
2023-03-01T03:34:24.909Z,21.75
2023-03-01T03:37:32.564Z,23.40
2023-03-01T03:40:18.923Z,21.98
2023-03-01T03:43:07.050Z,22.65
2023-03-01T03:45:55.000Z,27.02
2023-03-01T03:48:45.131Z,20.85
2023-03-01T03:51:31.773Z,22.05
2023-03-01T03:54:19.226Z,24.40
2023-03-01T03:57:05.592Z,26.13
2023-03-01T03:59:52.012Z,26.98
2023-03-01T04:02:38.342Z,24.42
2023-03-01T04:05:25.535Z,25.90
2023-03-01T04:08:12.224Z,21.75
2023-03-01T04:11:22.522Z,21.17
2023-03-01T04:14:09.062Z,25.65
2023-03-01T04:16:55.584Z,20.08
2023-03-01T04:19:44.942Z,23.55
2023-03-01T04:22:32.921Z,22.80
2023-03-01T04:25:19.315Z,23.75
2023-03-01T04:28:07.152Z,19.10
2023-03-01T04:30:54.139Z,24.65
2023-03-01T04:33:41.345Z,20.77
2023-03-01T04:36:30.143Z,21.52
2023-03-01T04:39:17.163Z,20.38
2023-03-01T04:42:03.545Z,18.88
2023-03-01T04:44:52.336Z,22.35
2023-03-01T04:47:39.160Z,28.20
2023-03-01T04:50:26.642Z,20.75
2023-03-01T04:53:13.374Z,21.20
2023-03-01T04:55:59.893Z,22.88
2023-03-01T04:58:46.747Z,23.80
2023-03-01T05:01:36.586Z,28.48
2023-03-01T05:04:23.176Z,21.67
2023-03-01T05:07:10.112Z,22.83
2023-03-01T05:09:57.265Z,22.00
2023-03-01T05:12:43.794Z,25.85
2023-03-01T05:15:32.043Z,22.45
2023-03-01T05:18:19.984Z,21.90
2023-03-01T05:21:08.897Z,22.33
2023-03-01T05:23:55.188Z,20.60
2023-03-01T05:26:42.530Z,27.40
2023-03-01T05:29:30.880Z,23.42
2023-03-01T05:32:17.294Z,22.08
2023-03-01T05:35:05.656Z,23.70
2023-03-01T05:37:53.208Z,25.00
2023-03-01T05:40:39.688Z,23.70
2023-03-01T05:43:26.081Z,21.13
2023-03-01T05:46:14.266Z,23.45
2023-03-01T05:49:00.961Z,22.02
2023-03-01T05:51:52.565Z,21.77
2023-03-01T05:54:39.500Z,20.63
2023-03-01T05:57:26.795Z,25.58
2023-03-01T06:00:15.466Z,21.85
2023-03-01T06:03:02.105Z,23.60
2023-03-01T06:05:48.664Z,23.95
2023-03-01T06:08:36.497Z,20.27
2023-03-01T06:11:23.545Z,22.27
2023-03-01T06:14:11.458Z,24.50
2023-03-01T06:16:57.816Z,23.20
2023-03-01T06:19:44.217Z,19.58
2023-03-01T06:22:30.608Z,22.17
2023-03-01T06:25:20.427Z,21.75
2023-03-01T06:28:06.424Z,23.38
2023-03-01T06:30:52.831Z,20.63
2023-03-01T06:33:39.840Z,25.20
2023-03-01T06:36:26.255Z,20.40
2023-03-01T06:39:12.770Z,23.02
2023-03-01T06:42:01.028Z,24.98
2023-03-01T06:44:47.845Z,21.55
2023-03-01T06:47:35.018Z,28.55
2023-03-01T06:50:21.868Z,33.22
2023-03-01T06:53:08.406Z,28.13
2023-03-01T06:55:56.770Z,20.67
2023-03-01T06:58:44.768Z,24.73
2023-03-01T07:01:31.815Z,25.88
2023-03-01T07:04:18.293Z,29.50
2023-03-01T07:07:04.537Z,23.20
2023-03-01T07:09:51.280Z,34.10
2023-03-01T07:12:37.731Z,26.70
2023-03-01T07:15:25.920Z,26.92
2023-03-01T07:18:12.529Z,26.17
2023-03-01T07:20:58.935Z,23.98
2023-03-01T07:23:45.470Z,25.60
2023-03-01T07:26:32.314Z,22.27
2023-03-01T07:29:19.476Z,24.50
2023-03-01T07:32:07.968Z,21.65
2023-03-01T07:34:54.502Z,22.77
2023-03-01T07:37:40.827Z,22.10
2023-03-01T07:40:27.315Z,18.67
2023-03-01T07:43:13.867Z,22.20
2023-03-01T07:46:01.415Z,19.25
2023-03-01T07:48:49.262Z,19.80
2023-03-01T07:51:35.830Z,19.88
2023-03-01T07:54:22.622Z,25.05
2023-03-01T07:57:09.087Z,17.60
2023-03-01T07:59:55.617Z,17.70
2023-03-01T08:02:42.882Z,15.43
2023-03-01T08:05:31.107Z,20.85
2023-03-01T08:08:18.061Z,40.08
2023-03-01T08:11:08.047Z,16.27
2023-03-01T08:13:54.177Z,18.00
2023-03-01T08:16:40.797Z,17.38
2023-03-01T08:19:29.086Z,14.43
2023-03-01T08:22:16.963Z,12.60
2023-03-01T08:25:03.353Z,13.18
2023-03-01T08:27:50.247Z,10.38
2023-03-01T08:30:37.298Z,14.65
2023-03-01T08:33:23.931Z,13.05
2023-03-01T08:36:10.533Z,11.30
2023-03-01T08:38:58.531Z,13.60
2023-03-01T08:41:46.442Z,14.45
2023-03-01T08:44:34.616Z,10.15
2023-03-01T08:47:21.420Z,10.73
2023-03-01T08:50:08.821Z,13.77
2023-03-01T08:52:55.292Z,10.73
2023-03-01T08:55:42.965Z,11.70
2023-03-01T08:58:29.450Z,9.02
2023-03-01T09:01:18.102Z,8.60
2023-03-01T09:04:04.567Z,10.57
2023-03-01T09:06:50.997Z,10.20
2023-03-01T09:09:38.264Z,10.85
2023-03-01T09:12:26.836Z,9.98
2023-03-01T09:15:13.499Z,9.65
2023-03-01T09:18:00.523Z,10.73
2023-03-01T09:20:47.104Z,8.93
2023-03-01T09:23:33.679Z,12.15
2023-03-01T09:26:22.414Z,10.95
2023-03-01T09:29:11.338Z,9.15
2023-03-01T09:31:57.949Z,9.05
2023-03-01T09:35:01.763Z,9.85
2023-03-01T09:37:50.676Z,7.55
2023-03-01T09:40:36.887Z,7.93
2023-03-01T09:43:28.011Z,9.05
2023-03-01T09:46:18.014Z,8.20
2023-03-01T09:49:09.453Z,7.38
2023-03-01T09:52:02.882Z,8.05
2023-03-01T09:54:49.926Z,10.57
2023-03-01T09:57:41.377Z,8.82
2023-03-01T10:00:38.639Z,7.82
2023-03-01T10:03:32.601Z,7.80
2023-03-01T10:06:34.388Z,7.53
2023-03-01T10:09:22.462Z,6.50
2023-03-01T10:12:12.481Z,7.43
2023-03-01T10:15:05.254Z,5.88
2023-03-01T10:17:57.130Z,6.60
2023-03-01T10:20:53.287Z,7.88
2023-03-01T10:23:39.999Z,7.90
2023-03-01T10:26:40.660Z,5.30
2023-03-01T10:32:24.872Z,7.43
2023-03-01T10:35:19.332Z,6.15
2023-03-01T10:38:08.822Z,5.68
2023-03-01T10:40:58.846Z,6.50
2023-03-01T10:43:47.562Z,9.45
2023-03-01T10:46:35.936Z,7.32
2023-03-01T10:49:26.492Z,6.28
2023-03-01T10:52:21.888Z,6.28
2023-03-01T10:55:28.238Z,8.88
2023-03-01T10:58:23.093Z,6.35
2023-03-01T11:01:27.517Z,5.88
2023-03-01T11:04:15.860Z,5.30
2023-03-01T11:07:04.221Z,8.07
2023-03-01T11:09:50.736Z,7.07
2023-03-01T11:12:38.804Z,6.38
2023-03-01T11:15:28.971Z,7.63
2023-03-01T11:18:30.964Z,5.30
2023-03-01T11:21:20.562Z,13.30
2023-03-01T11:24:12.879Z,6.30
2023-03-01T11:27:04.734Z,6.57
2023-03-01T11:29:57.294Z,5.38
2023-03-01T11:32:47.715Z,6.97
2023-03-01T11:35:38.659Z,6.55
2023-03-01T11:38:27.017Z,6.95
2023-03-01T11:41:17.569Z,5.43
2023-03-01T11:47:09.156Z,7.07
2023-03-01T11:50:26.962Z,6.20
2023-03-01T11:53:35.750Z,4.53
2023-03-01T11:56:31.320Z,6.70
2023-03-01T11:59:43.837Z,4.43
2023-03-01T12:03:02.521Z,4.28
2023-03-01T12:06:04.633Z,5.38
2023-03-01T12:09:00.214Z,4.45
2023-03-01T12:12:05.511Z,6.25
2023-03-01T12:15:21.886Z,4.22
2023-03-01T12:18:33.998Z,5.45
2023-03-01T12:21:30.379Z,4.80
2023-03-01T12:24:47.416Z,4.72
2023-03-01T12:28:16.588Z,4.40
2023-03-01T12:31:21.757Z,8.57
2023-03-01T12:34:27.391Z,5.57
2023-03-01T12:37:23.750Z,4.35
2023-03-01T12:40:45.585Z,5.28
2023-03-01T12:43:45.294Z,5.85
2023-03-01T12:46:43.798Z,6.10
2023-03-01T12:49:36.478Z,10.15
2023-03-01T12:52:28.914Z,7.22
2023-03-01T12:55:28.255Z,10.88
2023-03-01T12:58:29.855Z,7.60
2023-03-01T13:01:28.050Z,6.43
2023-03-01T13:04:23.399Z,5.40
2023-03-01T13:07:28.233Z,4.47
2023-03-01T13:10:23.674Z,6.47
2023-03-01T13:13:16.101Z,5.93
2023-03-01T13:16:40.693Z,7.38
2023-03-01T13:19:30.100Z,6.95
2023-03-01T13:22:34.445Z,6.20
2023-03-01T13:25:24.350Z,5.15
2023-03-01T13:28:48.255Z,6.07
2023-03-01T13:32:02.469Z,8.27
2023-03-01T13:34:54.223Z,5.85
2023-03-01T13:37:41.645Z,5.97
2023-03-01T13:41:00.617Z,5.63
2023-03-01T13:43:48.654Z,5.60
2023-03-01T13:46:35.827Z,4.15
2023-03-01T13:49:26.564Z,5.90
2023-03-01T13:52:37.696Z,4.38
2023-03-01T13:55:31.907Z,10.18
2023-03-01T13:58:23.628Z,4.75
2023-03-01T14:01:24.044Z,5.28
2023-03-01T14:04:22.385Z,5.38
2023-03-01T14:07:13.514Z,6.03
2023-03-01T14:10:03.664Z,7.28
2023-03-01T14:12:59.747Z,5.63
2023-03-01T14:15:59.782Z,6.47
2023-03-01T14:18:53.749Z,6.65
2023-03-01T14:21:40.313Z,6.68
2023-03-01T14:24:28.275Z,6.05
2023-03-01T14:27:15.740Z,5.30
2023-03-01T14:30:06.117Z,6.47
2023-03-01T14:32:58.388Z,4.50
2023-03-01T14:35:53.611Z,5.38
2023-03-01T14:38:42.417Z,5.75
2023-03-01T14:41:30.542Z,5.25
2023-03-01T14:44:21.518Z,4.53
2023-03-01T14:47:14.877Z,8.15
2023-03-01T14:50:04.002Z,4.47
2023-03-01T14:52:53.037Z,6.97
2023-03-01T14:55:42.925Z,5.97
2023-03-01T14:58:29.465Z,5.07
2023-03-01T15:01:18.059Z,4.55
2023-03-01T15:04:08.001Z,6.80
2023-03-01T15:06:55.635Z,5.35
2023-03-01T15:09:42.780Z,4.65
2023-03-01T15:12:38.704Z,5.75
2023-03-01T15:15:37.397Z,6.28
2023-03-01T15:18:27.891Z,4.53
2023-03-01T15:21:20.936Z,5.57
2023-03-01T15:24:20.390Z,4.65
2023-03-01T15:27:07.650Z,9.50
2023-03-01T15:29:57.706Z,7.40
2023-03-01T15:32:45.389Z,7.38
2023-03-01T15:35:41.537Z,6.05
2023-03-01T15:38:55.167Z,4.55
2023-03-01T15:41:49.633Z,7.32
2023-03-01T15:44:43.306Z,5.75
2023-03-01T15:47:33.105Z,6.43
2023-03-01T15:50:23.319Z,4.82
2023-03-01T15:53:15.302Z,6.25
2023-03-01T15:56:03.366Z,6.32
2023-03-01T15:58:49.689Z,5.03
2023-03-01T16:01:36.167Z,8.93
2023-03-01T16:04:23.870Z,6.35
2023-03-01T16:07:11.429Z,7.93
2023-03-01T16:09:57.721Z,5.80
2023-03-01T16:12:45.517Z,5.10
2023-03-01T16:15:34.227Z,4.57
2023-03-01T16:18:20.681Z,5.50
2023-03-01T16:21:07.467Z,5.15
2023-03-01T16:23:54.357Z,6.07
2023-03-01T16:26:41.206Z,6.70
2023-03-01T16:29:30.164Z,7.60
2023-03-01T16:32:16.411Z,5.75
2023-03-01T16:35:02.697Z,5.20
2023-03-01T16:37:50.220Z,10.57
2023-03-01T16:40:36.654Z,9.70
2023-03-01T16:43:22.919Z,7.28
2023-03-01T16:46:14.120Z,5.15
2023-03-01T16:49:01.062Z,5.95
2023-03-01T16:51:47.847Z,10.30
2023-03-01T16:54:34.061Z,7.50
2023-03-01T17:00:14.274Z,9.52
2023-03-01T17:03:02.238Z,8.23
2023-03-01T17:05:48.866Z,7.35
2023-03-01T17:08:35.120Z,6.13
2023-03-01T17:11:22.149Z,5.25
2023-03-01T17:14:09.061Z,7.05
2023-03-01T17:16:55.611Z,6.40
2023-03-01T17:19:44.495Z,9.15
2023-03-01T17:22:31.042Z,6.85
2023-03-01T17:25:17.566Z,5.95
2023-03-01T17:28:04.175Z,6.65
2023-03-01T17:30:50.635Z,8.85
2023-03-01T17:33:37.372Z,7.13
2023-03-01T17:36:26.022Z,6.78
2023-03-01T17:39:12.596Z,6.95
2023-03-01T17:41:59.156Z,7.20
2023-03-01T17:44:45.731Z,8.57
2023-03-01T17:47:32.286Z,9.43
2023-03-01T17:50:18.961Z,7.82
2023-03-01T17:53:09.761Z,6.38
2023-03-01T17:56:01.649Z,6.93
2023-03-01T17:58:47.991Z,6.22
2023-03-01T18:01:35.779Z,9.68
2023-03-01T18:04:22.443Z,7.18
2023-03-01T18:07:09.104Z,7.70
2023-03-01T18:09:57.145Z,7.38
2023-03-01T18:12:43.458Z,8.23
2023-03-01T18:15:29.909Z,8.18
2023-03-01T18:18:15.972Z,5.93
2023-03-01T18:21:03.612Z,13.07
2023-03-01T18:23:50.603Z,7.88
2023-03-01T18:26:39.288Z,6.57
2023-03-01T18:29:26.761Z,9.45
2023-03-01T18:32:13.343Z,9.73
2023-03-01T18:35:00.133Z,12.23
2023-03-01T18:37:46.548Z,6.63
2023-03-01T18:40:33.469Z,6.45
2023-03-01T18:43:21.646Z,9.13
2023-03-01T18:46:08.129Z,10.48
2023-03-01T18:48:55.349Z,9.70
2023-03-01T18:51:43.823Z,10.90
2023-03-01T18:54:30.434Z,12.23
2023-03-01T18:57:16.898Z,11.93
2023-03-01T19:00:05.233Z,10.23
2023-03-01T19:02:51.532Z,7.80
2023-03-01T19:05:42.002Z,9.43
2023-03-01T19:11:18.038Z,9.35
2023-03-01T19:14:08.430Z,8.23
2023-03-01T19:16:56.592Z,16.00
2023-03-01T19:19:42.940Z,10.18
2023-03-01T19:22:29.467Z,8.48
2023-03-01T19:25:16.013Z,9.30
2023-03-01T19:28:02.533Z,10.73
2023-03-01T19:30:49.091Z,8.48
2023-03-01T19:33:37.748Z,8.82
2023-03-01T19:36:32.658Z,8.75
2023-03-01T19:39:19.257Z,12.75
2023-03-01T19:42:06.702Z,11.73
2023-03-01T19:44:52.825Z,10.32
2023-03-01T19:47:39.062Z,9.00
2023-03-01T19:50:26.856Z,10.57
2023-03-01T19:53:13.785Z,8.00
2023-03-01T19:56:01.665Z,9.60
2023-03-01T19:58:50.195Z,8.95
2023-03-01T20:01:37.688Z,12.57
2023-03-01T20:04:24.262Z,12.05
2023-03-01T20:07:12.274Z,9.88
2023-03-01T20:09:58.649Z,9.32
2023-03-01T20:12:45.174Z,11.30
2023-03-01T20:15:31.382Z,9.35
2023-03-01T20:18:17.838Z,9.40
2023-03-01T20:21:09.293Z,8.55
2023-03-01T20:24:06.186Z,10.15
2023-03-01T20:26:52.637Z,11.20
2023-03-01T20:29:39.239Z,9.68
2023-03-01T20:32:25.898Z,8.23
2023-03-01T20:35:12.452Z,12.68
2023-03-01T20:37:58.651Z,12.20
2023-03-01T20:40:46.579Z,11.85
2023-03-01T20:43:33.988Z,10.23
2023-03-01T20:46:21.321Z,9.18
2023-03-01T20:49:07.652Z,12.57
2023-03-01T20:51:53.902Z,14.00
2023-03-01T20:54:40.804Z,12.85
2023-03-01T20:57:28.991Z,10.50
2023-03-01T21:00:15.671Z,11.43
2023-03-01T21:03:03.241Z,9.48
2023-03-01T21:05:49.732Z,10.93
2023-03-01T21:08:36.960Z,8.60
2023-03-01T21:11:25.248Z,11.60
2023-03-01T21:14:13.649Z,9.73
2023-03-01T21:16:59.753Z,13.15
2023-03-01T21:19:46.802Z,13.27
2023-03-01T21:22:34.806Z,11.50
2023-03-01T21:25:21.260Z,12.05
2023-03-01T21:28:07.709Z,10.18
2023-03-01T21:30:55.318Z,11.75
2023-03-01T21:33:45.584Z,11.25
2023-03-01T21:36:32.632Z,10.10
2023-03-01T21:39:19.469Z,12.55
2023-03-01T21:42:06.935Z,10.63
2023-03-01T21:44:53.533Z,13.23
2023-03-01T21:47:41.330Z,12.00
2023-03-01T21:50:27.807Z,10.23
2023-03-01T21:53:14.390Z,11.85
2023-03-01T21:56:01.111Z,11.23
2023-03-01T21:58:48.022Z,11.82
2023-03-01T22:01:34.428Z,14.10
2023-03-01T22:04:24.877Z,14.50
2023-03-01T22:09:58.126Z,12.38
2023-03-01T22:12:44.854Z,11.40
2023-03-01T22:15:31.466Z,14.77
2023-03-01T22:18:17.797Z,16.80
2023-03-01T22:21:07.948Z,12.93
2023-03-01T22:23:55.794Z,15.57
2023-03-01T22:26:43.844Z,12.48
2023-03-01T22:29:30.997Z,14.75
2023-03-01T22:32:17.552Z,15.32
2023-03-01T22:35:04.642Z,16.05
2023-03-01T22:37:52.458Z,12.77
2023-03-01T22:40:40.060Z,14.20
2023-03-01T22:43:26.872Z,11.00
2023-03-01T22:46:15.491Z,14.27
2023-03-01T22:49:02.238Z,15.82
2023-03-01T22:51:49.303Z,13.60
2023-03-01T22:54:37.378Z,13.63
2023-03-01T22:57:23.742Z,18.10
2023-03-01T23:00:13.185Z,13.95
2023-03-01T23:03:00.068Z,16.23
2023-03-01T23:05:46.457Z,14.55
2023-03-01T23:08:32.990Z,16.80
2023-03-01T23:11:22.010Z,17.17
2023-03-01T23:14:08.628Z,17.50
2023-03-01T23:16:55.063Z,15.93
2023-03-01T23:19:41.644Z,17.55
2023-03-01T23:22:31.264Z,16.67
2023-03-01T23:25:18.034Z,18.67
2023-03-01T23:28:05.833Z,20.25
2023-03-01T23:30:57.132Z,22.73
2023-03-01T23:33:45.177Z,23.65
2023-03-01T23:36:34.255Z,24.50
2023-03-01T23:39:21.743Z,25.70
2023-03-01T23:42:08.566Z,26.00
2023-03-01T23:44:56.924Z,26.88
2023-03-01T23:47:44.338Z,26.27
2023-03-01T23:50:30.861Z,28.55
2023-03-01T23:53:20.995Z,32.00
2023-03-01T23:56:08.305Z,32.35
2023-03-01T23:58:55.504Z,39.05
